Time;durP1;ratioP1;P1;durP2;ratioP2;P2;SDS_P1;SDS_P2;PMS_P1;PMS_P2;Temp;Humidity;BMP_temperature;BMP_pressure;BME280_temperature;BME280_humidity;BME280_pressure;Samples;Min_cycle;Max_cycle;Signal;HPM_P1;HPM_P2
2022/09/18 00:01:48;;;;;;;0.70;0.60;;;;;;;;;;5085002;28;20438;-73
2022/09/18 00:04:15;;;;;;;0.70;0.70;;;;;;;;;;5086999;28;20448;-73
2022/09/18 00:06:44;;;;;;;0.70;0.60;;;;;;;;;;5085719;28;20997;-73
2022/09/18 00:09:13;;;;;;;0.70;0.60;;;;;;;;;;5107242;28;20454;-74
2022/09/18 00:11:41;;;;;;;0.70;0.60;;;;;;;;;;5051198;28;20472;-74
2022/09/18 00:14:09;;;;;;;0.70;0.67;;;;;;;;;;5058502;28;20450;-73
2022/09/18 00:16:36;;;;;;;0.70;0.60;;;;;;;;;;5085427;28;20954;-73
2022/09/18 00:19:03;;;;;;;0.70;0.70;;;;;;;;;;5089231;28;20814;-71
2022/09/18 00:21:31;;;;;;;0.70;0.60;;;;;;;;;;5084647;28;20859;-72
2022/09/18 00:24:00;;;;;;;0.70;0.63;;;;;;;;;;5084455;28;20442;-73
2022/09/18 00:26:27;;;;;;;0.70;0.60;;;;;;;;;;5083877;28;20493;-71
2022/09/18 00:28:54;;;;;;;0.70;0.67;;;;;;;;;;5064736;28;20443;-72
2022/09/18 00:31:26;;;;;;;0.70;0.70;;;;;;;;;;5086451;28;20911;-73
2022/09/18 00:33:53;;;;;;;0.70;0.60;;;;;;;;;;5089109;28;20449;-73
2022/09/18 00:36:20;;;;;;;0.70;0.67;;;;;;;;;;5074930;28;21069;-73
2022/09/18 00:38:46;;;;;;;0.70;0.60;;;;;;;;;;5092998;28;20454;-74
2022/09/18 00:41:16;;;;;;;0.70;0.60;;;;;;;;;;5061686;28;20442;-72
2022/09/18 00:43:43;;;;;;;0.70;0.63;;;;;;;;;;5066076;28;20440;-72
2022/09/18 00:46:17;;;;;;;0.70;0.60;;;;;;;;;;5078645;28;20443;-72
2022/09/18 00:48:48;;;;;;;0.70;0.70;;;;;;;;;;5080986;28;20429;-72
2022/09/18 00:51:16;;;;;;;0.70;0.70;;;;;;;;;;5100285;28;21035;-72
2022/09/18 00:53:47;;;;;;;0.70;0.60;;;;;;;;;;5081737;28;20455;-72
2022/09/18 00:56:16;;;;;;;0.70;0.60;;;;;;;;;;5081776;28;20481;-73
2022/09/18 00:58:43;;;;;;;0.70;0.70;;;;;;;;;;5071172;28;20456;-74
2022/09/18 01:01:10;;;;;;;0.70;0.70;;;;;;;;;;5070263;28;20797;-73
2022/09/18 01:03:37;;;;;;;0.70;0.60;;;;;;;;;;5101157;28;20448;-72
2022/09/18 01:06:08;;;;;;;0.70;0.70;;;;;;;;;;5072974;28;20987;-73
2022/09/18 01:08:38;;;;;;;1.03;1.00;;;;;;;;;;5073191;28;20501;-73
2022/09/18 01:11:16;;;;;;;0.70;0.70;;;;;;;;;;5069848;28;20483;-73
2022/09/18 01:13:49;;;;;;;0.70;0.70;;;;;;;;;;5062389;28;20454;-74
2022/09/18 01:16:19;;;;;;;0.70;0.70;;;;;;;;;;5080560;28;20467;-73
2022/09/18 01:18:51;;;;;;;0.70;0.60;;;;;;;;;;5082326;28;20449;-72
2022/09/18 01:21:19;;;;;;;0.73;0.70;;;;;;;;;;5095433;28;20466;-72
2022/09/18 01:24:14;;;;;;;0.70;0.70;;;;;;;;;;5083901;28;20899;-72
2022/09/18 01:26:55;;;;;;;0.70;0.70;;;;;;;;;;5078367;28;20861;-73
2022/09/18 01:29:30;;;;;;;0.70;0.60;;;;;;;;;;5087412;28;20506;-72
2022/09/18 01:32:02;;;;;;;0.70;0.60;;;;;;;;;;5075033;28;20548;-72
2022/09/18 01:34:30;;;;;;;0.77;0.77;;;;;;;;;;5062864;28;20458;-74
2022/09/18 01:37:01;;;;;;;0.70;0.60;;;;;;;;;;5088500;28;20479;-73
2022/09/18 01:39:33;;;;;;;0.70;0.70;;;;;;;;;;5084744;28;20971;-72
2022/09/18 01:42:01;;;;;;;1.10;0.90;;;;;;;;;;5060150;28;21001;-73
2022/09/18 01:44:32;;;;;;;0.70;0.60;;;;;;;;;;5076923;28;20449;-73
2022/09/18 01:47:27;;;;;;;0.70;0.70;;;;;;;;;;5081111;28;20444;-74
2022/09/18 01:49:59;;;;;;;0.70;0.60;;;;;;;;;;5064226;28;20458;-74
2022/09/18 01:52:32;;;;;;;0.70;0.60;;;;;;;;;;5081577;28;20553;-74
2022/09/18 01:55:00;;;;;;;0.70;0.70;;;;;;;;;;5086208;28;20799;-74
2022/09/18 01:57:47;;;;;;;0.70;0.70;;;;;;;;;;5057488;28;20457;-74
2022/09/18 02:00:17;;;;;;;0.70;0.70;;;;;;;;;;5057729;28;20454;-74
2022/09/18 02:02:48;;;;;;;0.70;0.70;;;;;;;;;;5090970;28;20433;-74
2022/09/18 02:05:19;;;;;;;0.70;0.70;;;;;;;;;;5087500;28;20453;-76
2022/09/18 02:07:52;;;;;;;0.70;0.60;;;;;;;;;;5054620;28;20447;-76
2022/09/18 02:10:24;;;;;;;0.70;0.70;;;;;;;;;;5065924;28;20473;-73
2022/09/18 02:12:52;;;;;;;0.70;0.60;;;;;;;;;;5079779;28;20467;-74
2022/09/18 02:15:27;;;;;;;0.70;0.60;;;;;;;;;;5064396;28;20450;-73
2022/09/18 02:18:03;;;;;;;0.70;0.70;;;;;;;;;;5076205;28;20438;-73
2022/09/18 02:20:41;;;;;;;0.73;0.73;;;;;;;;;;5077709;28;20466;-73
2022/09/18 02:23:07;;;;;;;0.70;0.70;;;;;;;;;;5063678;28;20450;-74
2022/09/18 02:25:36;;;;;;;0.90;0.90;;;;;;;;;;5074825;28;20458;-76
2022/09/18 02:28:04;;;;;;;0.70;0.70;;;;;;;;;;5072092;28;21038;-72
2022/09/18 02:30:38;;;;;;;0.63;0.60;;;;;;;;;;5101610;28;20891;-72
2022/09/18 02:33:21;;;;;;;0.70;0.60;;;;;;;;;;5068081;28;20816;-71
2022/09/18 02:35:59;;;;;;;0.70;0.60;;;;;;;;;;5069997;28;20565;-72
2022/09/18 02:38:33;;;;;;;0.87;0.87;;;;;;;;;;5061952;28;20451;-75
2022/09/18 02:41:14;;;;;;;0.70;0.63;;;;;;;;;;5077267;28;20463;-74
2022/09/18 02:43:53;;;;;;;0.70;0.70;;;;;;;;;;5065454;28;20527;-73
2022/09/18 02:46:49;;;;;;;0.80;0.80;;;;;;;;;;5070607;28;20451;-75
2022/09/18 02:53:03;;;;;;;0.70;0.70;;;;;;;;;;5076400;28;20564;-73
2022/09/18 02:55:37;;;;;;;0.70;0.70;;;;;;;;;;5063926;28;20458;-73
2022/09/18 02:58:27;;;;;;;0.70;0.67;;;;;;;;;;5081174;28;20468;-73
2022/09/18 03:00:59;;;;;;;0.67;0.60;;;;;;;;;;5080200;28;20508;-73
2022/09/18 03:03:30;;;;;;;0.70;0.70;;;;;;;;;;5082948;28;20468;-73
2022/09/18 03:06:07;;;;;;;0.70;0.60;;;;;;;;;;5055720;28;20911;-71
2022/09/18 03:08:38;;;;;;;0.70;0.60;;;;;;;;;;5078271;28;20931;-74
2022/09/18 03:11:09;;;;;;;0.70;0.60;;;;;;;;;;5078529;28;20505;-73
2022/09/18 03:13:39;;;;;;;0.70;0.70;;;;;;;;;;5071729;28;20461;-73
2022/09/18 03:16:10;;;;;;;0.70;0.70;;;;;;;;;;5065092;28;20439;-72
2022/09/18 03:18:37;;;;;;;1.13;1.03;;;;;;;;;;5081069;28;20444;-71
2022/09/18 03:21:11;;;;;;;0.77;0.77;;;;;;;;;;5075035;28;20469;-73
2022/09/18 03:23:43;;;;;;;0.70;0.60;;;;;;;;;;5070715;28;20454;-74
2022/09/18 03:26:16;;;;;;;0.70;0.60;;;;;;;;;;5063904;28;20507;-74
2022/09/18 03:28:45;;;;;;;0.60;0.60;;;;;;;;;;5088789;28;20924;-73
2022/09/18 03:31:21;;;;;;;0.70;0.70;;;;;;;;;;5060306;28;20480;-74
2022/09/18 03:33:54;;;;;;;0.70;0.70;;;;;;;;;;5082074;28;20469;-72
2022/09/18 03:36:30;;;;;;;0.70;0.70;;;;;;;;;;5080073;28;20496;-75
2022/09/18 03:39:00;;;;;;;1.37;1.30;;;;;;;;;;5085586;28;20455;-74
2022/09/18 03:41:28;;;;;;;0.70;0.60;;;;;;;;;;5089210;28;20508;-74
2022/09/18 03:44:13;;;;;;;0.70;0.63;;;;;;;;;;5102901;28;20450;-74
2022/09/18 03:46:42;;;;;;;0.70;0.70;;;;;;;;;;5076646;28;20448;-74
2022/09/18 03:49:15;;;;;;;0.60;0.60;;;;;;;;;;5058802;28;20456;-74
2022/09/18 03:51:43;;;;;;;0.70;0.70;;;;;;;;;;5067798;28;20475;-75
2022/09/18 03:54:11;;;;;;;0.70;0.60;;;;;;;;;;5076838;28;20539;-74
2022/09/18 03:57:13;;;;;;;0.70;0.70;;;;;;;;;;5044132;28;20835;-72
2022/09/18 04:00:04;;;;;;;1.30;1.20;;;;;;;;;;5075878;28;20500;-74
2022/09/18 04:02:50;;;;;;;0.60;0.60;;;;;;;;;;5073074;28;20568;-72
2022/09/18 04:05:36;;;;;;;0.70;0.70;;;;;;;;;;5082470;28;20485;-73
2022/09/18 04:08:24;;;;;;;0.70;0.70;;;;;;;;;;5084797;28;20433;-73
2022/09/18 04:11:11;;;;;;;0.60;0.60;;;;;;;;;;5089147;28;20800;-72
2022/09/18 04:13:37;;;;;;;0.70;0.70;;;;;;;;;;5087145;28;20883;-73
2022/09/18 04:16:07;;;;;;;0.67;0.67;;;;;;;;;;5078445;28;20444;-73
2022/09/18 04:18:35;;;;;;;0.70;0.70;;;;;;;;;;5090199;28;20450;-73
2022/09/18 04:21:04;;;;;;;0.60;0.60;;;;;;;;;;5081960;28;20531;-73
2022/09/18 04:23:32;;;;;;;0.60;0.60;;;;;;;;;;5096684;28;20963;-74
2022/09/18 04:26:08;;;;;;;0.60;0.60;;;;;;;;;;5095271;28;20956;-74
2022/09/18 04:28:40;;;;;;;0.60;0.60;;;;;;;;;;5071895;28;20443;-75
2022/09/18 04:31:09;;;;;;;0.80;0.80;;;;;;;;;;5084217;28;20454;-75
2022/09/18 04:33:36;;;;;;;0.90;0.73;;;;;;;;;;5075295;28;20477;-73
2022/09/18 04:36:06;;;;;;;0.60;0.60;;;;;;;;;;5079192;28;20474;-74
2022/09/18 04:38:38;;;;;;;0.70;0.70;;;;;;;;;;5075435;28;20451;-76
2022/09/18 04:41:05;;;;;;;0.70;0.70;;;;;;;;;;5093554;28;20803;-74
2022/09/18 04:43:32;;;;;;;0.70;0.70;;;;;;;;;;5090250;28;20432;-74
2022/09/18 04:45:58;;;;;;;0.70;0.70;;;;;;;;;;5085460;28;20528;-74
2022/09/18 04:48:25;;;;;;;0.60;0.60;;;;;;;;;;5068750;28;20489;-75
2022/09/18 04:50:53;;;;;;;0.60;0.60;;;;;;;;;;5081440;28;20527;-74
2022/09/18 04:53:21;;;;;;;0.60;0.60;;;;;;;;;;5066490;28;20921;-74
2022/09/18 04:55:49;;;;;;;0.60;0.60;;;;;;;;;;5081262;28;20434;-75
2022/09/18 04:58:17;;;;;;;0.60;0.60;;;;;;;;;;5078069;28;20567;-74
2022/09/18 05:00:49;;;;;;;0.70;0.70;;;;;;;;;;5077129;28;20496;-74
2022/09/18 05:03:18;;;;;;;0.63;0.63;;;;;;;;;;5070459;28;20487;-75
2022/09/18 05:05:47;;;;;;;0.60;0.60;;;;;;;;;;5090971;28;20496;-75
2022/09/18 05:08:15;;;;;;;0.70;0.60;;;;;;;;;;5088634;28;20969;-73
2022/09/18 05:10:42;;;;;;;0.60;0.60;;;;;;;;;;5091441;28;20547;-73
2022/09/18 05:13:11;;;;;;;0.70;0.70;;;;;;;;;;5083159;28;20475;-73
2022/09/18 05:15:45;;;;;;;0.67;0.63;;;;;;;;;;5047806;28;20434;-74
2022/09/18 05:18:12;;;;;;;0.83;0.83;;;;;;;;;;5080977;28;20442;-73
2022/09/18 05:20:39;;;;;;;0.67;0.67;;;;;;;;;;5099362;28;20548;-74
2022/09/18 05:23:07;;;;;;;0.67;0.67;;;;;;;;;;5064330;28;20438;-74
2022/09/18 05:25:35;;;;;;;0.60;0.60;;;;;;;;;;5064329;28;20437;-74
2022/09/18 05:28:02;;;;;;;0.60;0.60;;;;;;;;;;5084876;28;20476;-73
2022/09/18 05:30:41;;;;;;;0.60;0.60;;;;;;;;;;5080961;28;20954;-74
2022/09/18 05:33:08;;;;;;;0.60;0.57;;;;;;;;;;5081508;28;20490;-74
2022/09/18 05:35:38;;;;;;;0.60;0.60;;;;;;;;;;5076764;28;20478;-74
2022/09/18 05:38:06;;;;;;;0.80;0.80;;;;;;;;;;5084264;28;20448;-74
2022/09/18 05:40:35;;;;;;;0.60;0.60;;;;;;;;;;5088141;28;20449;-74
2022/09/18 05:43:02;;;;;;;0.60;0.60;;;;;;;;;;5083439;28;20493;-74
2022/09/18 05:45:45;;;;;;;0.60;0.60;;;;;;;;;;5061647;28;20447;-73
2022/09/18 05:48:19;;;;;;;0.60;0.60;;;;;;;;;;5078372;28;20987;-75
2022/09/18 05:50:47;;;;;;;0.63;0.60;;;;;;;;;;5078069;28;20547;-75
2022/09/18 05:53:16;;;;;;;0.60;0.60;;;;;;;;;;5060371;28;20487;-73
2022/09/18 05:56:04;;;;;;;0.60;0.60;;;;;;;;;;5060981;28;20450;-74
2022/09/18 05:58:31;;;;;;;0.70;0.70;;;;;;;;;;5078915;28;20495;-73
2022/09/18 06:01:03;;;;;;;0.60;0.60;;;;;;;;;;5072793;28;20556;-74
2022/09/18 06:04:08;;;;;;;0.60;0.60;;;;;;;;;;5062323;28;20454;-74
2022/09/18 06:06:50;;;;;;;0.60;0.60;;;;;;;;;;5075699;28;20481;-73
2022/09/18 06:09:18;;;;;;;0.60;0.60;;;;;;;;;;5079503;28;20449;-75
2022/09/18 06:11:45;;;;;;;0.60;0.60;;;;;;;;;;5059927;28;20451;-74
2022/09/18 06:14:12;;;;;;;0.60;0.60;;;;;;;;;;5080919;28;20489;-73
2022/09/18 06:16:41;;;;;;;0.60;0.60;;;;;;;;;;5080775;28;20446;-73
2022/09/18 06:19:11;;;;;;;0.70;0.70;;;;;;;;;;5082851;28;20449;-78
2022/09/18 06:21:39;;;;;;;0.73;0.73;;;;;;;;;;5076619;28;20517;-73
2022/09/18 06:24:12;;;;;;;0.60;0.60;;;;;;;;;;5085409;28;20432;-73
2022/09/18 06:26:59;;;;;;;0.70;0.67;;;;;;;;;;5073695;28;20484;-74
2022/09/18 06:29:26;;;;;;;0.70;0.70;;;;;;;;;;5066337;28;20443;-73
2022/09/18 06:32:00;;;;;;;0.60;0.60;;;;;;;;;;5073907;28;20461;-73
2022/09/18 06:34:27;;;;;;;0.77;0.77;;;;;;;;;;5082434;28;20478;-73
2022/09/18 06:37:00;;;;;;;0.70;0.70;;;;;;;;;;5083548;28;20824;-74
2022/09/18 06:39:42;;;;;;;2.13;1.50;;;;;;;;;;5080368;28;20605;-72
2022/09/18 06:42:18;;;;;;;0.70;0.70;;;;;;;;;;5080690;28;20440;-74
2022/09/18 06:45:07;;;;;;;0.70;0.70;;;;;;;;;;4999481;28;20501;-74
2022/09/18 06:47:35;;;;;;;0.70;0.70;;;;;;;;;;4998824;28;20451;-74
2022/09/18 06:50:02;;;;;;;0.60;0.60;;;;;;;;;;5040630;28;20449;-74
2022/09/18 06:52:30;;;;;;;1.07;1.07;;;;;;;;;;5090389;28;20470;-73
2022/09/18 06:55:00;;;;;;;0.63;0.63;;;;;;;;;;5087693;28;20446;-74
2022/09/18 06:57:30;;;;;;;0.70;0.70;;;;;;;;;;5060984;28;20459;-74
2022/09/18 06:59:57;;;;;;;0.67;0.67;;;;;;;;;;5067329;28;20453;-73
2022/09/18 07:02:26;;;;;;;0.70;0.70;;;;;;;;;;5087077;28;20484;-74
2022/09/18 07:05:13;;;;;;;0.70;0.70;;;;;;;;;;5089976;28;20779;-75
2022/09/18 07:07:44;;;;;;;0.60;0.60;;;;;;;;;;5086642;28;20442;-74
2022/09/18 07:10:11;;;;;;;0.70;0.70;;;;;;;;;;5085667;28;20446;-73
2022/09/18 07:12:50;;;;;;;0.70;0.70;;;;;;;;;;5061789;28;20772;-72
2022/09/18 07:15:18;;;;;;;0.80;0.80;;;;;;;;;;5062717;28;20495;-73
2022/09/18 07:17:45;;;;;;;0.60;0.60;;;;;;;;;;5069656;28;20449;-73
2022/09/18 07:20:16;;;;;;;0.80;0.73;;;;;;;;;;5081344;28;20799;-74
2022/09/18 07:30:57;;;;;;;0.70;0.60;;;;;;;;;;5073515;28;20441;-74
2022/09/18 07:33:24;;;;;;;0.70;0.70;;;;;;;;;;5058187;28;20479;-76
2022/09/18 07:35:58;;;;;;;0.70;0.70;;;;;;;;;;5085318;28;20453;-74
2022/09/18 07:38:25;;;;;;;1.20;1.10;;;;;;;;;;5082329;28;20454;-74
2022/09/18 07:40:55;;;;;;;0.77;0.77;;;;;;;;;;5081564;28;20459;-72
2022/09/18 07:43:32;;;;;;;0.70;0.70;;;;;;;;;;5085206;28;20462;-71
2022/09/18 07:45:59;;;;;;;0.70;0.70;;;;;;;;;;5080842;28;20451;-73
2022/09/18 07:48:28;;;;;;;0.70;0.70;;;;;;;;;;5057807;28;20533;-73
2022/09/18 07:51:07;;;;;;;0.70;0.70;;;;;;;;;;5088524;28;20532;-72
2022/09/18 07:53:36;;;;;;;0.70;0.70;;;;;;;;;;5076811;28;20985;-74
2022/09/18 07:56:05;;;;;;;1.53;1.43;;;;;;;;;;5084796;28;20462;-73
2022/09/18 07:58:34;;;;;;;0.70;0.70;;;;;;;;;;5085790;28;20971;-73
2022/09/18 08:01:04;;;;;;;0.70;0.60;;;;;;;;;;5085626;28;20454;-78
2022/09/18 08:03:36;;;;;;;0.70;0.70;;;;;;;;;;5087503;28;20449;-74
2022/09/18 08:06:11;;;;;;;0.70;0.67;;;;;;;;;;5071321;28;20596;-73
2022/09/18 08:08:58;;;;;;;0.70;0.63;;;;;;;;;;5083971;28;20441;-73
2022/09/18 08:11:51;;;;;;;0.70;0.70;;;;;;;;;;5064020;28;20460;-74
2022/09/18 08:14:25;;;;;;;0.70;0.60;;;;;;;;;;5065773;28;20547;-74
2022/09/18 08:17:07;;;;;;;0.80;0.80;;;;;;;;;;5078604;28;20454;-75
2022/09/18 08:19:57;;;;;;;0.70;0.70;;;;;;;;;;5081426;28;20444;-75
2022/09/18 08:23:00;;;;;;;0.70;0.70;;;;;;;;;;5064869;28;20451;-75
2022/09/18 08:25:27;;;;;;;0.90;0.90;;;;;;;;;;5064344;28;20443;-72
2022/09/18 08:27:58;;;;;;;0.87;0.87;;;;;;;;;;5066805;28;20965;-74
2022/09/18 08:30:34;;;;;;;0.77;0.77;;;;;;;;;;5077819;28;20849;-76
2022/09/18 08:33:07;;;;;;;0.70;0.70;;;;;;;;;;5066575;28;20471;-74
2022/09/18 08:35:35;;;;;;;0.70;0.60;;;;;;;;;;5077814;28;20521;-74
2022/09/18 08:38:16;;;;;;;0.70;0.70;;;;;;;;;;5085921;28;20949;-73
2022/09/18 08:41:25;;;;;;;0.70;0.70;;;;;;;;;;5048545;28;20463;-74
2022/09/18 08:43:57;;;;;;;0.80;0.80;;;;;;;;;;5077997;28;20448;-73
2022/09/18 08:46:28;;;;;;;0.70;0.70;;;;;;;;;;5077126;28;20460;-72
2022/09/18 08:48:57;;;;;;;0.80;0.80;;;;;;;;;;5078295;28;20488;-74
2022/09/18 08:51:27;;;;;;;0.70;0.70;;;;;;;;;;5075207;28;20468;-73
2022/09/18 08:54:00;;;;;;;0.70;0.70;;;;;;;;;;5066291;28;20476;-75
2022/09/18 08:56:42;;;;;;;0.70;0.67;;;;;;;;;;5066265;28;20493;-76
2022/09/18 08:59:16;;;;;;;0.70;0.70;;;;;;;;;;5085240;28;20467;-75
2022/09/18 09:01:48;;;;;;;0.80;0.80;;;;;;;;;;5059337;28;20990;-74
2022/09/18 09:04:18;;;;;;;0.80;0.70;;;;;;;;;;5076048;28;20969;-73
2022/09/18 09:06:53;;;;;;;0.77;0.77;;;;;;;;;;5075904;28;20564;-74
2022/09/18 09:09:43;;;;;;;0.70;0.70;;;;;;;;;;5083598;28;20462;-73
2022/09/18 09:12:16;;;;;;;0.70;0.70;;;;;;;;;;5086983;28;20463;-73
2022/09/18 09:15:00;;;;;;;1.10;1.10;;;;;;;;;;5071289;28;20550;-75
2022/09/18 09:17:38;;;;;;;0.80;0.80;;;;;;;;;;5071888;28;20449;-75
2022/09/18 09:20:14;;;;;;;0.70;0.70;;;;;;;;;;5081792;28;20548;-76
2022/09/18 09:22:46;;;;;;;0.70;0.70;;;;;;;;;;5081844;28;20543;-75
2022/09/18 09:25:18;;;;;;;1.10;1.00;;;;;;;;;;5061634;28;20857;-75
2022/09/18 09:28:14;;;;;;;0.70;0.70;;;;;;;;;;5063406;28;20540;-74
2022/09/18 09:31:04;;;;;;;0.70;0.70;;;;;;;;;;5070230;28;20819;-76
2022/09/18 09:33:52;;;;;;;0.70;0.70;;;;;;;;;;5073771;28;20482;-74
2022/09/18 09:36:42;;;;;;;0.80;0.80;;;;;;;;;;5074908;28;20467;-75
2022/09/18 09:39:17;;;;;;;0.70;0.70;;;;;;;;;;5083613;28;20505;-73
2022/09/18 09:41:48;;;;;;;0.70;0.70;;;;;;;;;;5087529;28;20941;-75
2022/09/18 09:44:31;;;;;;;0.70;0.60;;;;;;;;;;5077182;28;20469;-76
2022/09/18 09:47:02;;;;;;;0.70;0.60;;;;;;;;;;5075204;28;20442;-76
2022/09/18 09:49:30;;;;;;;0.70;0.70;;;;;;;;;;5067164;28;20444;-76
2022/09/18 09:52:01;;;;;;;0.70;0.70;;;;;;;;;;5082157;28;20512;-75
2022/09/18 09:54:34;;;;;;;0.70;0.60;;;;;;;;;;5080788;28;20480;-77
2022/09/18 09:57:07;;;;;;;0.70;0.60;;;;;;;;;;5075978;28;20481;-75
2022/09/18 09:59:39;;;;;;;0.70;0.70;;;;;;;;;;5083163;28;21005;-76
2022/09/18 10:02:35;;;;;;;0.70;0.60;;;;;;;;;;5081770;28;20442;-76
2022/09/18 10:05:10;;;;;;;0.70;0.60;;;;;;;;;;5091855;28;20966;-75
2022/09/18 10:07:41;;;;;;;0.70;0.70;;;;;;;;;;5054990;28;20432;-76
2022/09/18 10:10:14;;;;;;;0.70;0.70;;;;;;;;;;5076219;28;20434;-74
2022/09/18 10:12:50;;;;;;;0.70;0.70;;;;;;;;;;5083427;28;20829;-75
2022/09/18 10:15:19;;;;;;;0.70;0.60;;;;;;;;;;5080087;28;20999;-74
2022/09/18 10:17:48;;;;;;;0.80;0.80;;;;;;;;;;5080683;28;20494;-75
2022/09/18 10:20:16;;;;;;;0.70;0.60;;;;;;;;;;5083803;28;20457;-73
2022/09/18 10:22:45;;;;;;;0.80;0.80;;;;;;;;;;5057080;28;21021;-73
2022/09/18 10:25:15;;;;;;;0.90;0.90;;;;;;;;;;5058621;28;20437;-74
2022/09/18 10:27:42;;;;;;;0.70;0.70;;;;;;;;;;5080725;28;20435;-76
2022/09/18 10:30:12;;;;;;;1.00;1.00;;;;;;;;;;5073804;28;20579;-72
2022/09/18 10:32:44;;;;;;;0.70;0.60;;;;;;;;;;5065798;28;20447;-77
2022/09/18 10:35:30;;;;;;;0.70;0.70;;;;;;;;;;5076396;28;20562;-76
2022/09/18 10:37:58;;;;;;;0.70;0.60;;;;;;;;;;5063951;28;20505;-75
2022/09/18 10:40:38;;;;;;;0.70;0.67;;;;;;;;;;5074731;28;20550;-76
2022/09/18 10:43:14;;;;;;;0.97;0.97;;;;;;;;;;5080736;28;20457;-80
2022/09/18 10:45:50;;;;;;;0.70;0.70;;;;;;;;;;5077204;28;20444;-79
2022/09/18 10:48:25;;;;;;;0.80;0.80;;;;;;;;;;5101301;28;20970;-78
2022/09/18 10:50:52;;;;;;;0.80;0.80;;;;;;;;;;5075268;28;20566;-81
2022/09/18 10:53:26;;;;;;;0.70;0.70;;;;;;;;;;5074488;28;20933;-77
2022/09/18 10:55:54;;;;;;;0.80;0.80;;;;;;;;;;5067662;28;20448;-76
2022/09/18 10:58:25;;;;;;;0.70;0.70;;;;;;;;;;5091647;28;20482;-76
2022/09/18 11:00:58;;;;;;;0.80;0.80;;;;;;;;;;5089076;28;20445;-77
2022/09/18 11:03:39;;;;;;;0.70;0.70;;;;;;;;;;5101642;28;20801;-81
2022/09/18 11:06:08;;;;;;;0.87;0.87;;;;;;;;;;5078354;28;20474;-76
2022/09/18 11:08:40;;;;;;;0.70;0.70;;;;;;;;;;5078605;28;20449;-79
2022/09/18 11:11:10;;;;;;;0.90;0.90;;;;;;;;;;5081208;28;20808;-77
2022/09/18 11:13:40;;;;;;;0.80;0.80;;;;;;;;;;5077594;28;20440;-75
2022/09/18 11:16:10;;;;;;;0.70;0.70;;;;;;;;;;5078902;28;20449;-75
2022/09/18 11:18:38;;;;;;;0.70;0.70;;;;;;;;;;5081356;28;20447;-74
2022/09/18 11:21:09;;;;;;;0.70;0.70;;;;;;;;;;5086112;28;20489;-75
2022/09/18 11:23:36;;;;;;;0.70;0.60;;;;;;;;;;5078688;28;20559;-73
2022/09/18 11:26:16;;;;;;;0.70;0.70;;;;;;;;;;5056334;28;20437;-75
2022/09/18 11:28:57;;;;;;;0.70;0.70;;;;;;;;;;5080408;28;20998;-73
2022/09/18 11:31:33;;;;;;;0.70;0.70;;;;;;;;;;5076919;28;20486;-77
2022/09/18 11:34:02;;;;;;;1.20;0.80;;;;;;;;;;5087992;28;20493;-73
2022/09/18 11:36:39;;;;;;;0.70;0.70;;;;;;;;;;5085165;28;20874;-78
2022/09/18 11:39:13;;;;;;;0.70;0.70;;;;;;;;;;5089169;28;20453;-73
2022/09/18 11:41:42;;;;;;;1.37;1.27;;;;;;;;;;5083533;28;20480;-77
2022/09/18 11:44:14;;;;;;;1.00;0.90;;;;;;;;;;5098995;28;20444;-76
2022/09/18 11:46:50;;;;;;;0.70;0.70;;;;;;;;;;5081964;28;20469;-76
2022/09/18 11:49:20;;;;;;;0.80;0.80;;;;;;;;;;5077495;28;20452;-74
2022/09/18 11:51:54;;;;;;;0.87;0.83;;;;;;;;;;5068911;28;20543;-76
2022/09/18 11:54:28;;;;;;;0.90;0.90;;;;;;;;;;5060280;28;20477;-77
2022/09/18 11:56:57;;;;;;;0.80;0.77;;;;;;;;;;5075699;28;20421;-73
2022/09/18 11:59:28;;;;;;;0.70;0.70;;;;;;;;;;5090803;28;20458;-73
2022/09/18 12:02:10;;;;;;;0.70;0.70;;;;;;;;;;5084600;28;20447;-76
2022/09/18 12:04:42;;;;;;;0.80;0.80;;;;;;;;;;5070660;28;20452;-74
2022/09/18 12:07:20;;;;;;;0.70;0.70;;;;;;;;;;5104452;28;21040;-74
2022/09/18 12:10:23;;;;;;;0.70;0.70;;;;;;;;;;5100633;28;20457;-76
2022/09/18 12:12:54;;;;;;;0.70;0.60;;;;;;;;;;5082417;28;21045;-75
2022/09/18 12:15:23;;;;;;;0.70;0.70;;;;;;;;;;5078040;28;20466;-76
2022/09/18 12:17:55;;;;;;;1.30;1.20;;;;;;;;;;5083257;28;20444;-74
2022/09/18 12:20:24;;;;;;;0.70;0.70;;;;;;;;;;5080772;28;20445;-74
2022/09/18 12:22:53;;;;;;;0.70;0.70;;;;;;;;;;5087566;28;20935;-75
2022/09/18 12:25:22;;;;;;;0.70;0.70;;;;;;;;;;5075149;28;20449;-74
2022/09/18 12:28:28;;;;;;;0.80;0.80;;;;;;;;;;5084877;28;20568;-75
2022/09/18 12:30:59;;;;;;;0.70;0.70;;;;;;;;;;5035190;28;20506;-74
2022/09/18 12:33:37;;;;;;;0.70;0.70;;;;;;;;;;5082759;28;20512;-75
2022/09/18 12:36:24;;;;;;;0.80;0.77;;;;;;;;;;5082292;28;20994;-76
2022/09/18 12:38:59;;;;;;;0.70;0.70;;;;;;;;;;5074719;28;20450;-76
2022/09/18 12:41:43;;;;;;;0.80;0.73;;;;;;;;;;5092593;28;20504;-72
2022/09/18 12:44:18;;;;;;;0.80;0.70;;;;;;;;;;5063619;28;20511;-76
2022/09/18 12:46:53;;;;;;;0.70;0.70;;;;;;;;;;5091861;28;20467;-75
2022/09/18 12:49:39;;;;;;;0.70;0.70;;;;;;;;;;5086622;28;20432;-74
2022/09/18 12:52:14;;;;;;;0.70;0.70;;;;;;;;;;5080578;28;20481;-74
2022/09/18 12:54:57;;;;;;;0.70;0.70;;;;;;;;;;5077168;28;20557;-72
2022/09/18 12:57:32;;;;;;;0.90;0.90;;;;;;;;;;5081082;28;20810;-76
2022/09/18 13:00:01;;;;;;;0.80;0.80;;;;;;;;;;5083178;28;20433;-75
2022/09/18 13:02:35;;;;;;;0.70;0.70;;;;;;;;;;5082334;28;20449;-78
2022/09/18 13:05:04;;;;;;;0.70;0.70;;;;;;;;;;5094202;28;20857;-74
2022/09/18 13:07:33;;;;;;;1.97;1.87;;;;;;;;;;5062784;28;20464;-76
2022/09/18 13:10:03;;;;;;;0.70;0.70;;;;;;;;;;5058458;28;20476;-78
2022/09/18 13:12:33;;;;;;;0.80;0.80;;;;;;;;;;5072648;28;20955;-75
2022/09/18 13:15:03;;;;;;;0.70;0.70;;;;;;;;;;5075631;28;20472;-79
2022/09/18 13:17:35;;;;;;;0.80;0.77;;;;;;;;;;5077272;28;20812;-80
2022/09/18 13:20:06;;;;;;;0.80;0.70;;;;;;;;;;5094120;28;20472;-78
2022/09/18 13:22:35;;;;;;;0.70;0.67;;;;;;;;;;5095778;28;20506;-79
2022/09/18 13:25:03;;;;;;;0.70;0.70;;;;;;;;;;5081123;28;20462;-79
2022/09/18 13:27:30;;;;;;;0.70;0.60;;;;;;;;;;5096012;28;20493;-80
2022/09/18 13:30:16;;;;;;;0.80;0.80;;;;;;;;;;5066826;28;20490;-79
2022/09/18 13:32:43;;;;;;;0.70;0.60;;;;;;;;;;5054146;28;20481;-78
2022/09/18 13:35:23;;;;;;;0.70;0.70;;;;;;;;;;5079959;28;20890;-76
2022/09/18 13:38:02;;;;;;;0.70;0.60;;;;;;;;;;5082230;28;20471;-79
2022/09/18 13:40:32;;;;;;;0.70;0.60;;;;;;;;;;5083450;28;20496;-77
2022/09/18 13:43:13;;;;;;;0.70;0.70;;;;;;;;;;5078685;28;20458;-77
2022/09/18 13:45:41;;;;;;;0.70;0.70;;;;;;;;;;5088981;28;20461;-78
2022/09/18 13:48:15;;;;;;;0.80;0.80;;;;;;;;;;5083016;28;20438;-77
2022/09/18 13:50:49;;;;;;;0.80;0.80;;;;;;;;;;5066384;28;20526;-76
2022/09/18 13:53:28;;;;;;;1.60;1.27;;;;;;;;;;5081855;28;20445;-79
2022/09/18 13:55:56;;;;;;;0.70;0.70;;;;;;;;;;5085097;28;20462;-78
2022/09/18 13:58:34;;;;;;;0.70;0.70;;;;;;;;;;5067826;28;21013;-79
2022/09/18 14:01:02;;;;;;;0.70;0.70;;;;;;;;;;5078090;28;20440;-78
2022/09/18 14:03:33;;;;;;;0.80;0.80;;;;;;;;;;5086435;28;20456;-76
2022/09/18 14:06:16;;;;;;;0.70;0.70;;;;;;;;;;5091540;28;20443;-78
2022/09/18 14:08:44;;;;;;;0.70;0.70;;;;;;;;;;5091965;28;20960;-76
2022/09/18 14:11:11;;;;;;;0.70;0.60;;;;;;;;;;5083349;28;20480;-76
2022/09/18 14:13:52;;;;;;;0.70;0.60;;;;;;;;;;5083689;28;20496;-76
2022/09/18 14:16:25;;;;;;;0.77;0.77;;;;;;;;;;5073380;28;20466;-76
2022/09/18 14:18:55;;;;;;;0.73;0.70;;;;;;;;;;5081223;28;20437;-77
2022/09/18 14:21:25;;;;;;;0.70;0.70;;;;;;;;;;5081573;28;20559;-78
2022/09/18 14:24:04;;;;;;;0.60;0.60;;;;;;;;;;5063076;28;20488;-78
2022/09/18 14:26:50;;;;;;;0.70;0.70;;;;;;;;;;5085509;28;20515;-77
2022/09/18 14:29:18;;;;;;;0.70;0.70;;;;;;;;;;5088316;28;20984;-77
2022/09/18 14:31:45;;;;;;;0.70;0.70;;;;;;;;;;5062906;28;20986;-77
2022/09/18 14:34:16;;;;;;;0.70;0.70;;;;;;;;;;5093169;28;21010;-78
2022/09/18 14:36:47;;;;;;;0.80;0.80;;;;;;;;;;5096883;28;20957;-76
2022/09/18 14:39:23;;;;;;;0.70;0.70;;;;;;;;;;5076289;28;20435;-78
2022/09/18 14:41:51;;;;;;;0.70;0.60;;;;;;;;;;5098619;28;20448;-76
2022/09/18 14:44:18;;;;;;;0.70;0.70;;;;;;;;;;5084298;28;20939;-77
2022/09/18 14:46:52;;;;;;;0.70;0.60;;;;;;;;;;5082241;28;20444;-78
2022/09/18 14:49:30;;;;;;;0.60;0.60;;;;;;;;;;5065211;28;20458;-77
2022/09/18 14:51:57;;;;;;;1.60;1.50;;;;;;;;;;5077008;28;20479;-77
2022/09/18 14:54:34;;;;;;;0.60;0.60;;;;;;;;;;5071808;28;20492;-74
2022/09/18 14:57:10;;;;;;;0.70;0.70;;;;;;;;;;5080104;28;20475;-77
2022/09/18 14:59:38;;;;;;;1.73;1.63;;;;;;;;;;5072792;28;20444;-75
2022/09/18 15:02:18;;;;;;;1.50;1.40;;;;;;;;;;5076958;28;20501;-79
2022/09/18 15:04:51;;;;;;;0.70;0.70;;;;;;;;;;5088335;28;20544;-78
2022/09/18 15:07:19;;;;;;;0.70;0.70;;;;;;;;;;5079106;28;20457;-81
2022/09/18 15:09:49;;;;;;;0.80;0.80;;;;;;;;;;5059105;28;20451;-80
2022/09/18 15:12:17;;;;;;;0.70;0.70;;;;;;;;;;5084688;28;20442;-77
2022/09/18 15:14:44;;;;;;;0.80;0.80;;;;;;;;;;5086146;28;20866;-79
2022/09/18 15:17:18;;;;;;;0.70;0.70;;;;;;;;;;5085277;28;20965;-79
2022/09/18 15:19:54;;;;;;;0.70;0.70;;;;;;;;;;5089883;28;20526;-78
2022/09/18 15:22:22;;;;;;;0.70;0.70;;;;;;;;;;5079674;28;20462;-78
2022/09/18 15:24:50;;;;;;;0.70;0.70;;;;;;;;;;5077346;28;20436;-77
2022/09/18 15:27:17;;;;;;;0.70;0.70;;;;;;;;;;5087564;28;20499;-77
2022/09/18 15:29:45;;;;;;;0.70;0.70;;;;;;;;;;5077217;28;20937;-75
2022/09/18 15:32:16;;;;;;;0.70;0.70;;;;;;;;;;5084361;28;20453;-75